sensor_id;sensor_type;location;lat;lon;timestamp;temperature;humidity
463;DHT22;218;51.902;9.542;2022-10-31T00:49:42;16.00;1.00
463;DHT22;218;51.902;9.542;2022-10-31T04:06:59;14.30;1.00
463;DHT22;218;51.902;9.542;2022-10-31T04:34:12;13.60;1.00
463;DHT22;218;51.902;9.542;2022-10-31T04:53:57;14.10;1.00
463;DHT22;218;51.902;9.542;2022-10-31T05:16:05;13.50;1.00
463;DHT22;218;51.902;9.542;2022-10-31T05:38:16;13.60;1.00
463;DHT22;218;51.902;9.542;2022-10-31T09:02:58;18.20;1.00
463;DHT22;218;51.902;9.542;2022-10-31T09:05:25;18.90;1.00
463;DHT22;218;51.902;9.542;2022-10-31T09:07:55;19.60;1.00
463;DHT22;218;51.902;9.542;2022-10-31T09:10:23;20.10;1.00
463;DHT22;218;51.902;9.542;2022-10-31T09:12:55;20.80;1.00
463;DHT22;218;51.902;9.542;2022-10-31T09:15:22;21.30;1.00
463;DHT22;218;51.902;9.542;2022-10-31T09:17:49;21.60;1.00
463;DHT22;218;51.902;9.542;2022-10-31T09:20:19;21.80;1.00
463;DHT22;218;51.902;9.542;2022-10-31T09:22:46;22.30;1.00
463;DHT22;218;51.902;9.542;2022-10-31T09:25:15;22.60;1.00
463;DHT22;218;51.902;9.542;2022-10-31T09:27:42;23.00;1.00
463;DHT22;218;51.902;9.542;2022-10-31T09:30:12;23.40;1.00
463;DHT22;218;51.902;9.542;2022-10-31T09:32:46;23.90;1.00
463;DHT22;218;51.902;9.542;2022-10-31T09:35:21;23.90;1.00
463;DHT22;218;51.902;9.542;2022-10-31T09:37:54;24.10;1.00
463;DHT22;218;51.902;9.542;2022-10-31T09:40:36;24.30;1.00
463;DHT22;218;51.902;9.542;2022-10-31T09:43:19;24.40;1.00
463;DHT22;218;51.902;9.542;2022-10-31T09:45:55;24.40;1.00
463;DHT22;218;51.902;9.542;2022-10-31T09:48:43;24.50;1.00
463;DHT22;218;51.902;9.542;2022-10-31T09:51:18;24.60;1.00
463;DHT22;218;51.902;9.542;2022-10-31T09:53:51;24.70;1.00
463;DHT22;218;51.902;9.542;2022-10-31T09:56:20;24.90;1.00
463;DHT22;218;51.902;9.542;2022-10-31T09:58:51;25.20;1.00
463;DHT22;218;51.902;9.542;2022-10-31T10:01:30;25.40;1.00
463;DHT22;218;51.902;9.542;2022-10-31T10:04:04;25.60;1.00
463;DHT22;218;51.902;9.542;2022-10-31T10:06:36;25.70;1.00
463;DHT22;218;51.902;9.542;2022-10-31T10:09:11;25.70;1.00
463;DHT22;218;51.902;9.542;2022-10-31T10:11:50;25.70;1.00
463;DHT22;218;51.902;9.542;2022-10-31T10:14:31;25.70;1.00
463;DHT22;218;51.902;9.542;2022-10-31T10:17:21;25.80;1.00
463;DHT22;218;51.902;9.542;2022-10-31T10:20:12;26.00;1.00
463;DHT22;218;51.902;9.542;2022-10-31T10:23:00;26.10;1.00
463;DHT22;218;51.902;9.542;2022-10-31T10:25:39;26.10;1.00
463;DHT22;218;51.902;9.542;2022-10-31T10:28:14;26.20;1.00
463;DHT22;218;51.902;9.542;2022-10-31T10:33:42;26.60;1.00
463;DHT22;218;51.902;9.542;2022-10-31T10:36:13;26.90;1.00
463;DHT22;218;51.902;9.542;2022-10-31T10:38:49;27.20;1.00
463;DHT22;218;51.902;9.542;2022-10-31T10:41:22;27.30;1.00
463;DHT22;218;51.902;9.542;2022-10-31T10:43:50;27.20;1.00
463;DHT22;218;51.902;9.542;2022-10-31T10:46:24;27.20;1.00
463;DHT22;218;51.902;9.542;2022-10-31T10:49:16;27.10;1.00
463;DHT22;218;51.902;9.542;2022-10-31T10:51:46;27.20;1.00
463;DHT22;218;51.902;9.542;2022-10-31T10:57:30;27.30;1.00
463;DHT22;218;51.902;9.542;2022-10-31T11:00:00;27.40;1.00
463;DHT22;218;51.902;9.542;2022-10-31T11:02:31;27.50;1.00
463;DHT22;218;51.902;9.542;2022-10-31T11:05:00;27.40;1.00
463;DHT22;218;51.902;9.542;2022-10-31T11:07:37;27.30;1.00
463;DHT22;218;51.902;9.542;2022-10-31T11:10:11;27.10;1.00
463;DHT22;218;51.902;9.542;2022-10-31T11:12:41;27.00;1.00
463;DHT22;218;51.902;9.542;2022-10-31T11:15:19;27.00;1.00
463;DHT22;218;51.902;9.542;2022-10-31T11:17:48;27.00;1.00
463;DHT22;218;51.902;9.542;2022-10-31T11:20:29;27.00;1.00
463;DHT22;218;51.902;9.542;2022-10-31T11:23:03;26.90;1.00
463;DHT22;218;51.902;9.542;2022-10-31T11:25:31;26.70;1.00
463;DHT22;218;51.902;9.542;2022-10-31T11:27:59;26.60;1.00
463;DHT22;218;51.902;9.542;2022-10-31T11:30:26;26.40;1.00
463;DHT22;218;51.902;9.542;2022-10-31T11:32:54;26.20;1.00
463;DHT22;218;51.902;9.542;2022-10-31T11:35:22;26.00;1.00
463;DHT22;218;51.902;9.542;2022-10-31T11:37:52;25.80;1.00
463;DHT22;218;51.902;9.542;2022-10-31T11:40:22;25.80;1.00
463;DHT22;218;51.902;9.542;2022-10-31T11:42:52;25.70;1.00
463;DHT22;218;51.902;9.542;2022-10-31T11:45:28;25.70;1.00
463;DHT22;218;51.902;9.542;2022-10-31T11:47:57;25.60;1.00
463;DHT22;218;51.902;9.542;2022-10-31T11:50:28;25.60;1.00
463;DHT22;218;51.902;9.542;2022-10-31T11:52:56;25.60;1.00
463;DHT22;218;51.902;9.542;2022-10-31T11:55:32;25.70;1.00
463;DHT22;218;51.902;9.542;2022-10-31T11:58:01;25.60;1.00
463;DHT22;218;51.902;9.542;2022-10-31T12:00:32;25.60;1.00
463;DHT22;218;51.902;9.542;2022-10-31T12:03:12;25.50;1.00
463;DHT22;218;51.902;9.542;2022-10-31T12:05:42;25.40;1.00
463;DHT22;218;51.902;9.542;2022-10-31T12:08:13;25.30;1.00
463;DHT22;218;51.902;9.542;2022-10-31T12:10:51;25.20;1.00
463;DHT22;218;51.902;9.542;2022-10-31T12:13:32;25.20;1.00
463;DHT22;218;51.902;9.542;2022-10-31T12:16:05;25.10;1.00
463;DHT22;218;51.902;9.542;2022-10-31T12:18:56;25.00;1.00
463;DHT22;218;51.902;9.542;2022-10-31T12:21:45;24.80;1.00
463;DHT22;218;51.902;9.542;2022-10-31T12:24:32;24.70;1.00
463;DHT22;218;51.902;9.542;2022-10-31T12:27:14;24.60;1.00
463;DHT22;218;51.902;9.542;2022-10-31T12:30:08;24.50;1.00
463;DHT22;218;51.902;9.542;2022-10-31T12:32:43;24.50;1.00
463;DHT22;218;51.902;9.542;2022-10-31T12:35:33;24.40;1.00
463;DHT22;218;51.902;9.542;2022-10-31T12:38:30;24.40;1.00
463;DHT22;218;51.902;9.542;2022-10-31T12:41:18;24.40;1.00
463;DHT22;218;51.902;9.542;2022-10-31T12:43:55;24.30;1.00
463;DHT22;218;51.902;9.542;2022-10-31T12:46:47;24.30;1.00
463;DHT22;218;51.902;9.542;2022-10-31T12:49:31;24.30;1.00
463;DHT22;218;51.902;9.542;2022-10-31T12:52:12;24.30;1.00
463;DHT22;218;51.902;9.542;2022-10-31T12:55:02;24.30;1.00
463;DHT22;218;51.902;9.542;2022-10-31T12:57:35;24.20;1.00
463;DHT22;218;51.902;9.542;2022-10-31T13:00:12;24.20;1.00
463;DHT22;218;51.902;9.542;2022-10-31T13:02:50;24.20;1.00
463;DHT22;218;51.902;9.542;2022-10-31T13:05:24;24.20;1.00
463;DHT22;218;51.902;9.542;2022-10-31T13:07:58;24.10;1.00
463;DHT22;218;51.902;9.542;2022-10-31T13:10:31;24.10;1.00
463;DHT22;218;51.902;9.542;2022-10-31T13:13:05;24.00;1.00
463;DHT22;218;51.902;9.542;2022-10-31T13:15:44;23.90;1.00
463;DHT22;218;51.902;9.542;2022-10-31T13:18:25;23.80;1.00
463;DHT22;218;51.902;9.542;2022-10-31T13:20:55;23.70;1.00
463;DHT22;218;51.902;9.542;2022-10-31T13:23:27;23.80;1.00
463;DHT22;218;51.902;9.542;2022-10-31T13:25:56;24.20;1.00
463;DHT22;218;51.902;9.542;2022-10-31T13:28:31;24.00;1.00
463;DHT22;218;51.902;9.542;2022-10-31T13:31:01;24.10;1.00
463;DHT22;218;51.902;9.542;2022-10-31T13:33:34;24.20;1.00
463;DHT22;218;51.902;9.542;2022-10-31T13:36:15;24.20;1.00
463;DHT22;218;51.902;9.542;2022-10-31T13:38:50;24.20;1.00
463;DHT22;218;51.902;9.542;2022-10-31T13:41:30;24.30;1.00
463;DHT22;218;51.902;9.542;2022-10-31T13:44:02;24.30;1.00
463;DHT22;218;51.902;9.542;2022-10-31T13:46:37;24.30;1.00
463;DHT22;218;51.902;9.542;2022-10-31T13:49:35;24.30;1.00
463;DHT22;218;51.902;9.542;2022-10-31T13:52:13;24.20;1.00
463;DHT22;218;51.902;9.542;2022-10-31T13:54:44;24.20;1.00
463;DHT22;218;51.902;9.542;2022-10-31T13:57:18;24.20;1.00
463;DHT22;218;51.902;9.542;2022-10-31T13:59:51;24.10;1.00
463;DHT22;218;51.902;9.542;2022-10-31T14:02:25;24.10;1.00
463;DHT22;218;51.902;9.542;2022-10-31T14:04:56;24.10;1.00
463;DHT22;218;51.902;9.542;2022-10-31T14:07:26;24.00;1.00
463;DHT22;218;51.902;9.542;2022-10-31T14:09:57;24.00;1.00
463;DHT22;218;51.902;9.542;2022-10-31T14:12:30;23.90;1.00
463;DHT22;218;51.902;9.542;2022-10-31T14:15:03;23.90;1.00
463;DHT22;218;51.902;9.542;2022-10-31T14:17:38;23.90;1.00
463;DHT22;218;51.902;9.542;2022-10-31T14:20:32;23.80;1.00
463;DHT22;218;51.902;9.542;2022-10-31T14:23:11;23.80;1.00
463;DHT22;218;51.902;9.542;2022-10-31T14:25:39;23.70;1.00
463;DHT22;218;51.902;9.542;2022-10-31T14:28:19;23.70;1.00
463;DHT22;218;51.902;9.542;2022-10-31T14:30:55;23.70;1.00
463;DHT22;218;51.902;9.542;2022-10-31T14:33:24;23.60;1.00
463;DHT22;218;51.902;9.542;2022-10-31T14:35:59;23.60;1.00
463;DHT22;218;51.902;9.542;2022-10-31T14:38:42;23.60;1.00
463;DHT22;218;51.902;9.542;2022-10-31T14:41:22;23.50;1.00
463;DHT22;218;51.902;9.542;2022-10-31T14:46:58;23.40;1.00
463;DHT22;218;51.902;9.542;2022-10-31T14:52:23;23.30;1.00
463;DHT22;218;51.902;9.542;2022-10-31T14:54:53;23.30;1.00
463;DHT22;218;51.902;9.542;2022-10-31T14:57:23;23.20;1.00
463;DHT22;218;51.902;9.542;2022-10-31T14:59:55;23.20;1.00
463;DHT22;218;51.902;9.542;2022-10-31T15:02:28;23.20;1.00
463;DHT22;218;51.902;9.542;2022-10-31T15:05:00;23.10;1.00
463;DHT22;218;51.902;9.542;2022-10-31T15:07:33;23.10;1.00
463;DHT22;218;51.902;9.542;2022-10-31T15:10:03;23.00;1.00
463;DHT22;218;51.902;9.542;2022-10-31T15:12:33;23.00;1.00
463;DHT22;218;51.902;9.542;2022-10-31T15:15:13;22.90;1.00
463;DHT22;218;51.902;9.542;2022-10-31T15:17:44;22.80;1.00
463;DHT22;218;51.902;9.542;2022-10-31T15:20:19;22.80;1.00
463;DHT22;218;51.902;9.542;2022-10-31T15:22:51;22.70;1.00
463;DHT22;218;51.902;9.542;2022-10-31T15:25:21;22.70;1.00
463;DHT22;218;51.902;9.542;2022-10-31T15:27:51;22.60;1.00
463;DHT22;218;51.902;9.542;2022-10-31T15:30:21;22.50;1.00
463;DHT22;218;51.902;9.542;2022-10-31T15:32:49;22.50;1.00
463;DHT22;218;51.902;9.542;2022-10-31T15:35:22;22.40;1.00
463;DHT22;218;51.902;9.542;2022-10-31T15:37:52;22.40;1.00
463;DHT22;218;51.902;9.542;2022-10-31T15:40:22;22.30;1.00
463;DHT22;218;51.902;9.542;2022-10-31T15:42:53;22.30;1.00
463;DHT22;218;51.902;9.542;2022-10-31T15:45:23;22.30;1.00
463;DHT22;218;51.902;9.542;2022-10-31T15:47:55;22.20;1.00
463;DHT22;218;51.902;9.542;2022-10-31T15:50:28;22.20;1.00
463;DHT22;218;51.902;9.542;2022-10-31T15:52:59;22.10;1.00
463;DHT22;218;51.902;9.542;2022-10-31T15:55:27;22.10;1.00
463;DHT22;218;51.902;9.542;2022-10-31T15:57:57;22.00;1.00
463;DHT22;218;51.902;9.542;2022-10-31T16:00:27;22.00;1.00
463;DHT22;218;51.902;9.542;2022-10-31T16:03:06;22.00;1.00
463;DHT22;218;51.902;9.542;2022-10-31T16:05:37;21.90;1.00
463;DHT22;218;51.902;9.542;2022-10-31T16:08:25;21.90;1.00
463;DHT22;218;51.902;9.542;2022-10-31T16:10:53;21.80;1.00
463;DHT22;218;51.902;9.542;2022-10-31T16:13:28;21.80;1.00
463;DHT22;218;51.902;9.542;2022-10-31T16:15:58;21.70;1.00
463;DHT22;218;51.902;9.542;2022-10-31T16:18:27;21.70;1.00
463;DHT22;218;51.902;9.542;2022-10-31T16:20:56;21.60;1.00
463;DHT22;218;51.902;9.542;2022-10-31T16:23:26;21.60;1.00
463;DHT22;218;51.902;9.542;2022-10-31T16:25:54;21.50;1.00
463;DHT22;218;51.902;9.542;2022-10-31T16:28:24;21.50;1.00
463;DHT22;218;51.902;9.542;2022-10-31T16:30:53;21.50;1.00
463;DHT22;218;51.902;9.542;2022-10-31T16:33:23;21.40;1.00
463;DHT22;218;51.902;9.542;2022-10-31T16:35:52;21.40;1.00
463;DHT22;218;51.902;9.542;2022-10-31T16:38:20;21.40;1.00
463;DHT22;218;51.902;9.542;2022-10-31T16:40:51;21.40;1.00
463;DHT22;218;51.902;9.542;2022-10-31T16:43:20;21.30;1.00
463;DHT22;218;51.902;9.542;2022-10-31T16:45:50;21.30;1.00
463;DHT22;218;51.902;9.542;2022-10-31T16:48:20;21.20;1.00
463;DHT22;218;51.902;9.542;2022-10-31T16:50:53;21.20;1.00
463;DHT22;218;51.902;9.542;2022-10-31T16:53:20;21.20;1.00
463;DHT22;218;51.902;9.542;2022-10-31T16:55:54;21.10;1.00
463;DHT22;218;51.902;9.542;2022-10-31T16:58:25;21.10;1.00
463;DHT22;218;51.902;9.542;2022-10-31T17:00:53;21.10;1.00
463;DHT22;218;51.902;9.542;2022-10-31T17:03:20;21.10;1.00
463;DHT22;218;51.902;9.542;2022-10-31T17:05:47;21.00;1.00
463;DHT22;218;51.902;9.542;2022-10-31T17:08:14;21.00;1.00
463;DHT22;218;51.902;9.542;2022-10-31T17:10:43;21.00;1.00
463;DHT22;218;51.902;9.542;2022-10-31T17:13:17;21.00;1.00
463;DHT22;218;51.902;9.542;2022-10-31T17:15:47;21.00;1.00
463;DHT22;218;51.902;9.542;2022-10-31T17:18:15;21.00;1.00
463;DHT22;218;51.902;9.542;2022-10-31T17:20:43;21.00;1.00
463;DHT22;218;51.902;9.542;2022-10-31T17:23:11;21.00;1.00
463;DHT22;218;51.902;9.542;2022-10-31T17:25:44;21.00;1.00
463;DHT22;218;51.902;9.542;2022-10-31T17:28:14;21.00;1.00
463;DHT22;218;51.902;9.542;2022-10-31T17:30:42;21.00;1.00
463;DHT22;218;51.902;9.542;2022-10-31T17:33:10;21.00;1.00
463;DHT22;218;51.902;9.542;2022-10-31T17:35:38;20.90;1.00
463;DHT22;218;51.902;9.542;2022-10-31T17:38:09;20.90;1.00
463;DHT22;218;51.902;9.542;2022-10-31T17:40:37;20.90;1.00
463;DHT22;218;51.902;9.542;2022-10-31T17:43:04;20.80;1.00
463;DHT22;218;51.902;9.542;2022-10-31T17:45:32;20.80;1.00
463;DHT22;218;51.902;9.542;2022-10-31T17:47:59;20.80;1.00
463;DHT22;218;51.902;9.542;2022-10-31T17:50:26;20.80;1.00
463;DHT22;218;51.902;9.542;2022-10-31T17:52:53;20.80;1.00
463;DHT22;218;51.902;9.542;2022-10-31T17:55:20;20.70;1.00
463;DHT22;218;51.902;9.542;2022-10-31T17:57:47;20.70;1.00
463;DHT22;218;51.902;9.542;2022-10-31T18:00:17;20.70;1.00
463;DHT22;218;51.902;9.542;2022-10-31T18:02:46;20.70;1.00
463;DHT22;218;51.902;9.542;2022-10-31T18:05:14;20.70;1.00
463;DHT22;218;51.902;9.542;2022-10-31T18:07:40;20.70;1.00
463;DHT22;218;51.902;9.542;2022-10-31T18:10:08;20.60;1.00
463;DHT22;218;51.902;9.542;2022-10-31T18:12:36;20.60;1.00
463;DHT22;218;51.902;9.542;2022-10-31T18:15:04;20.60;1.00
463;DHT22;218;51.902;9.542;2022-10-31T18:17:31;20.60;1.00
463;DHT22;218;51.902;9.542;2022-10-31T18:19:59;20.50;1.00
463;DHT22;218;51.902;9.542;2022-10-31T18:22:26;20.50;1.00
463;DHT22;218;51.902;9.542;2022-10-31T18:24:53;20.50;1.00
463;DHT22;218;51.902;9.542;2022-10-31T18:27:20;20.50;1.00
463;DHT22;218;51.902;9.542;2022-10-31T18:29:47;20.50;1.00
463;DHT22;218;51.902;9.542;2022-10-31T18:34:41;20.40;1.00
463;DHT22;218;51.902;9.542;2022-10-31T18:37:10;20.40;1.00
463;DHT22;218;51.902;9.542;2022-10-31T18:39:37;20.40;1.00
463;DHT22;218;51.902;9.542;2022-10-31T18:42:04;20.40;1.00
463;DHT22;218;51.902;9.542;2022-10-31T18:44:31;20.40;1.00
463;DHT22;218;51.902;9.542;2022-10-31T18:46:58;20.40;1.00
463;DHT22;218;51.902;9.542;2022-10-31T18:49:25;20.30;1.00
463;DHT22;218;51.902;9.542;2022-10-31T18:51:57;20.30;1.00
463;DHT22;218;51.902;9.542;2022-10-31T18:54:25;20.30;1.00
463;DHT22;218;51.902;9.542;2022-10-31T18:56:52;20.20;1.00
463;DHT22;218;51.902;9.542;2022-10-31T18:59:20;20.20;1.00
463;DHT22;218;51.902;9.542;2022-10-31T19:01:47;20.20;1.00
463;DHT22;218;51.902;9.542;2022-10-31T19:04:14;20.10;1.00
463;DHT22;218;51.902;9.542;2022-10-31T19:06:41;20.10;1.00
463;DHT22;218;51.902;9.542;2022-10-31T19:09:08;20.10;1.00
463;DHT22;218;51.902;9.542;2022-10-31T19:11:39;20.00;1.00
463;DHT22;218;51.902;9.542;2022-10-31T19:14:06;20.00;1.00
463;DHT22;218;51.902;9.542;2022-10-31T19:19:03;19.90;1.00
463;DHT22;218;51.902;9.542;2022-10-31T19:21:30;19.90;1.00
463;DHT22;218;51.902;9.542;2022-10-31T19:23:59;19.90;1.00
463;DHT22;218;51.902;9.542;2022-10-31T19:26:27;19.90;1.00
463;DHT22;218;51.902;9.542;2022-10-31T19:28:55;19.90;1.00
463;DHT22;218;51.902;9.542;2022-10-31T19:33:50;19.80;1.00
463;DHT22;218;51.902;9.542;2022-10-31T19:36:18;19.80;1.00
463;DHT22;218;51.902;9.542;2022-10-31T19:38:47;19.80;1.00
463;DHT22;218;51.902;9.542;2022-10-31T19:41:17;19.80;1.00
463;DHT22;218;51.902;9.542;2022-10-31T19:43:44;19.90;1.00
463;DHT22;218;51.902;9.542;2022-10-31T19:46:27;19.80;1.00
463;DHT22;218;51.902;9.542;2022-10-31T19:48:56;19.80;1.00
463;DHT22;218;51.902;9.542;2022-10-31T19:51:24;19.80;1.00
463;DHT22;218;51.902;9.542;2022-10-31T19:53:52;19.80;1.00
463;DHT22;218;51.902;9.542;2022-10-31T19:58:47;19.80;1.00
463;DHT22;218;51.902;9.542;2022-10-31T20:03:44;19.90;1.00
463;DHT22;218;51.902;9.542;2022-10-31T20:06:15;19.90;1.00
463;DHT22;218;51.902;9.542;2022-10-31T20:08:43;19.90;1.00
463;DHT22;218;51.902;9.542;2022-10-31T20:11:11;19.90;1.00
463;DHT22;218;51.902;9.542;2022-10-31T20:16:16;19.90;1.00
463;DHT22;218;51.902;9.542;2022-10-31T20:21:15;19.80;1.00
463;DHT22;218;51.902;9.542;2022-10-31T20:26:11;19.80;1.00
463;DHT22;218;51.902;9.542;2022-10-31T20:28:38;19.80;1.00
463;DHT22;218;51.902;9.542;2022-10-31T20:31:31;19.70;1.00
463;DHT22;218;51.902;9.542;2022-10-31T20:36:26;19.70;1.00
463;DHT22;218;51.902;9.542;2022-10-31T20:38:55;19.60;1.00
463;DHT22;218;51.902;9.542;2022-10-31T20:41:23;19.60;1.00
463;DHT22;218;51.902;9.542;2022-10-31T20:43:50;19.60;1.00
463;DHT22;218;51.902;9.542;2022-10-31T20:46:19;19.60;1.00
463;DHT22;218;51.902;9.542;2022-10-31T20:48:48;19.50;1.00
463;DHT22;218;51.902;9.542;2022-10-31T20:53:45;19.40;1.00
463;DHT22;218;51.902;9.542;2022-10-31T20:56:14;19.40;1.00
463;DHT22;218;51.902;9.542;2022-10-31T20:58:42;19.30;1.00
463;DHT22;218;51.902;9.542;2022-10-31T21:11:20;19.10;1.00
463;DHT22;218;51.902;9.542;2022-10-31T21:21:15;18.00;1.00
463;DHT22;218;51.902;9.542;2022-10-31T21:26:12;17.70;1.00
